sensor_id;sensor_type;location;lat;lon;timestamp;P1;durP1;ratioP1;P2;durP2;ratioP2
36923;SDS011;22841;50.252;18.688;2022-12-18T00:01:04;87.95;;;29.10;;
36923;SDS011;22841;50.252;18.688;2022-12-18T00:03:34;81.50;;;29.20;;
36923;SDS011;22841;50.252;18.688;2022-12-18T00:06:01;82.60;;;27.98;;
36923;SDS011;22841;50.252;18.688;2022-12-18T00:08:27;88.82;;;28.75;;
36923;SDS011;22841;50.252;18.688;2022-12-18T00:10:54;85.05;;;28.35;;
36923;SDS011;22841;50.252;18.688;2022-12-18T00:13:20;94.60;;;32.10;;
36923;SDS011;22841;50.252;18.688;2022-12-18T00:15:46;90.35;;;30.05;;
36923;SDS011;22841;50.252;18.688;2022-12-18T00:18:12;84.63;;;32.60;;
36923;SDS011;22841;50.252;18.688;2022-12-18T00:20:38;93.50;;;30.45;;
36923;SDS011;22841;50.252;18.688;2022-12-18T00:23:06;87.72;;;28.67;;
36923;SDS011;22841;50.252;18.688;2022-12-18T00:25:33;83.10;;;26.17;;
36923;SDS011;22841;50.252;18.688;2022-12-18T00:28:00;84.13;;;27.13;;
36923;SDS011;22841;50.252;18.688;2022-12-18T00:30:27;80.22;;;28.17;;
36923;SDS011;22841;50.252;18.688;2022-12-18T00:32:53;87.82;;;27.25;;
36923;SDS011;22841;50.252;18.688;2022-12-18T00:35:19;89.10;;;28.25;;
36923;SDS011;22841;50.252;18.688;2022-12-18T00:37:46;77.53;;;27.20;;
36923;SDS011;22841;50.252;18.688;2022-12-18T00:40:12;90.63;;;30.05;;
36923;SDS011;22841;50.252;18.688;2022-12-18T00:42:39;102.75;;;33.58;;
36923;SDS011;22841;50.252;18.688;2022-12-18T00:45:24;101.10;;;31.23;;
36923;SDS011;22841;50.252;18.688;2022-12-18T00:47:51;84.68;;;28.23;;
36923;SDS011;22841;50.252;18.688;2022-12-18T00:50:17;85.53;;;26.48;;
36923;SDS011;22841;50.252;18.688;2022-12-18T00:52:43;81.93;;;27.85;;
36923;SDS011;22841;50.252;18.688;2022-12-18T00:55:09;81.82;;;28.63;;
36923;SDS011;22841;50.252;18.688;2022-12-18T00:57:36;88.90;;;30.13;;
36923;SDS011;22841;50.252;18.688;2022-12-18T01:00:03;86.75;;;29.33;;
36923;SDS011;22841;50.252;18.688;2022-12-18T01:02:30;81.68;;;28.50;;
36923;SDS011;22841;50.252;18.688;2022-12-18T01:04:56;91.90;;;29.38;;
36923;SDS011;22841;50.252;18.688;2022-12-18T01:07:22;101.13;;;33.92;;
36923;SDS011;22841;50.252;18.688;2022-12-18T01:09:48;105.45;;;32.83;;
36923;SDS011;22841;50.252;18.688;2022-12-18T01:12:14;92.30;;;29.98;;
36923;SDS011;22841;50.252;18.688;2022-12-18T01:14:40;87.85;;;31.58;;
36923;SDS011;22841;50.252;18.688;2022-12-18T01:17:06;100.88;;;32.20;;
36923;SDS011;22841;50.252;18.688;2022-12-18T01:19:32;96.07;;;33.30;;
36923;SDS011;22841;50.252;18.688;2022-12-18T01:21:59;88.60;;;31.55;;
36923;SDS011;22841;50.252;18.688;2022-12-18T01:24:25;77.57;;;28.42;;
36923;SDS011;22841;50.252;18.688;2022-12-18T01:26:51;76.88;;;28.27;;
36923;SDS011;22841;50.252;18.688;2022-12-18T01:29:17;92.00;;;28.02;;
36923;SDS011;22841;50.252;18.688;2022-12-18T01:31:43;71.25;;;25.55;;
36923;SDS011;22841;50.252;18.688;2022-12-18T01:34:09;82.47;;;27.63;;
36923;SDS011;22841;50.252;18.688;2022-12-18T01:36:36;96.18;;;32.30;;
36923;SDS011;22841;50.252;18.688;2022-12-18T01:39:05;88.13;;;32.45;;
36923;SDS011;22841;50.252;18.688;2022-12-18T01:41:33;86.20;;;32.30;;
36923;SDS011;22841;50.252;18.688;2022-12-18T01:47:20;98.00;;;31.05;;
36923;SDS011;22841;50.252;18.688;2022-12-18T01:49:47;107.93;;;36.10;;
36923;SDS011;22841;50.252;18.688;2022-12-18T01:52:13;103.70;;;33.40;;
36923;SDS011;22841;50.252;18.688;2022-12-18T01:54:40;76.13;;;28.08;;
36923;SDS011;22841;50.252;18.688;2022-12-18T01:57:07;113.18;;;36.38;;
36923;SDS011;22841;50.252;18.688;2022-12-18T01:59:33;89.80;;;31.30;;
36923;SDS011;22841;50.252;18.688;2022-12-18T02:02:00;88.85;;;31.70;;
36923;SDS011;22841;50.252;18.688;2022-12-18T02:04:28;85.55;;;29.63;;
36923;SDS011;22841;50.252;18.688;2022-12-18T02:06:55;93.47;;;31.25;;
36923;SDS011;22841;50.252;18.688;2022-12-18T02:09:37;77.97;;;28.30;;
36923;SDS011;22841;50.252;18.688;2022-12-18T02:12:27;86.65;;;29.90;;
36923;SDS011;22841;50.252;18.688;2022-12-18T02:20:05;106.30;;;34.90;;
36923;SDS011;22841;50.252;18.688;2022-12-18T02:28:19;94.63;;;31.33;;
36923;SDS011;22841;50.252;18.688;2022-12-18T02:30:49;88.68;;;31.67;;
36923;SDS011;22841;50.252;18.688;2022-12-18T02:33:17;103.13;;;33.72;;
36923;SDS011;22841;50.252;18.688;2022-12-18T02:35:46;107.93;;;35.83;;
36923;SDS011;22841;50.252;18.688;2022-12-18T02:38:14;108.68;;;35.40;;
36923;SDS011;22841;50.252;18.688;2022-12-18T02:40:42;110.57;;;38.00;;
36923;SDS011;22841;50.252;18.688;2022-12-18T02:43:10;124.78;;;40.33;;
36923;SDS011;22841;50.252;18.688;2022-12-18T02:45:52;105.47;;;37.70;;
36923;SDS011;22841;50.252;18.688;2022-12-18T02:48:22;99.60;;;33.22;;
36923;SDS011;22841;50.252;18.688;2022-12-18T02:53:28;114.47;;;37.15;;
36923;SDS011;22841;50.252;18.688;2022-12-18T02:58:47;104.72;;;35.25;;
36923;SDS011;22841;50.252;18.688;2022-12-18T03:01:42;106.25;;;32.13;;
36923;SDS011;22841;50.252;18.688;2022-12-18T03:04:34;102.72;;;35.42;;
36923;SDS011;22841;50.252;18.688;2022-12-18T03:07:11;101.40;;;36.17;;
36923;SDS011;22841;50.252;18.688;2022-12-18T03:09:47;107.35;;;36.67;;
36923;SDS011;22841;50.252;18.688;2022-12-18T03:12:20;110.85;;;35.35;;
36923;SDS011;22841;50.252;18.688;2022-12-18T03:15:04;95.72;;;31.35;;
36923;SDS011;22841;50.252;18.688;2022-12-18T03:17:46;98.78;;;33.50;;
36923;SDS011;22841;50.252;18.688;2022-12-18T03:20:18;106.10;;;35.58;;
36923;SDS011;22841;50.252;18.688;2022-12-18T03:22:48;107.63;;;38.33;;
36923;SDS011;22841;50.252;18.688;2022-12-18T03:25:18;96.82;;;32.80;;
36923;SDS011;22841;50.252;18.688;2022-12-18T03:27:49;102.05;;;33.72;;
36923;SDS011;22841;50.252;18.688;2022-12-18T03:30:20;122.50;;;36.92;;
36923;SDS011;22841;50.252;18.688;2022-12-18T03:33:01;110.38;;;35.80;;
36923;SDS011;22841;50.252;18.688;2022-12-18T03:35:33;106.55;;;35.17;;
36923;SDS011;22841;50.252;18.688;2022-12-18T03:38:03;105.43;;;33.35;;
36923;SDS011;22841;50.252;18.688;2022-12-18T03:40:31;115.03;;;34.90;;
36923;SDS011;22841;50.252;18.688;2022-12-18T03:43:10;107.45;;;35.35;;
36923;SDS011;22841;50.252;18.688;2022-12-18T03:45:54;109.35;;;33.72;;
36923;SDS011;22841;50.252;18.688;2022-12-18T03:48:32;107.75;;;32.95;;
36923;SDS011;22841;50.252;18.688;2022-12-18T03:51:08;103.57;;;33.83;;
36923;SDS011;22841;50.252;18.688;2022-12-18T03:53:59;106.95;;;36.35;;
36923;SDS011;22841;50.252;18.688;2022-12-18T03:56:29;110.32;;;37.17;;
36923;SDS011;22841;50.252;18.688;2022-12-18T03:58:58;111.72;;;36.25;;
36923;SDS011;22841;50.252;18.688;2022-12-18T04:01:31;114.55;;;36.03;;
36923;SDS011;22841;50.252;18.688;2022-12-18T04:04:05;111.32;;;36.55;;
36923;SDS011;22841;50.252;18.688;2022-12-18T04:06:33;116.65;;;37.72;;
36923;SDS011;22841;50.252;18.688;2022-12-18T04:09:00;116.35;;;37.15;;
36923;SDS011;22841;50.252;18.688;2022-12-18T04:11:27;130.57;;;40.67;;
36923;SDS011;22841;50.252;18.688;2022-12-18T04:13:56;132.45;;;41.13;;
36923;SDS011;22841;50.252;18.688;2022-12-18T04:16:24;118.43;;;39.38;;
36923;SDS011;22841;50.252;18.688;2022-12-18T04:18:51;115.15;;;36.72;;
36923;SDS011;22841;50.252;18.688;2022-12-18T04:21:17;119.78;;;41.10;;
36923;SDS011;22841;50.252;18.688;2022-12-18T04:23:43;132.00;;;42.90;;
36923;SDS011;22841;50.252;18.688;2022-12-18T04:26:09;124.13;;;38.67;;
36923;SDS011;22841;50.252;18.688;2022-12-18T04:28:36;131.60;;;43.65;;
36923;SDS011;22841;50.252;18.688;2022-12-18T04:31:03;130.63;;;41.20;;
36923;SDS011;22841;50.252;18.688;2022-12-18T04:33:30;136.68;;;40.90;;
36923;SDS011;22841;50.252;18.688;2022-12-18T04:35:56;129.05;;;40.30;;
36923;SDS011;22841;50.252;18.688;2022-12-18T04:38:22;131.05;;;40.67;;
36923;SDS011;22841;50.252;18.688;2022-12-18T04:40:48;129.23;;;37.70;;
36923;SDS011;22841;50.252;18.688;2022-12-18T04:43:14;119.72;;;39.33;;
36923;SDS011;22841;50.252;18.688;2022-12-18T04:45:40;131.55;;;40.83;;
36923;SDS011;22841;50.252;18.688;2022-12-18T04:48:06;129.48;;;42.42;;
36923;SDS011;22841;50.252;18.688;2022-12-18T04:50:32;122.93;;;40.10;;
36923;SDS011;22841;50.252;18.688;2022-12-18T04:52:58;138.13;;;43.47;;
36923;SDS011;22841;50.252;18.688;2022-12-18T04:55:24;141.68;;;45.67;;
36923;SDS011;22841;50.252;18.688;2022-12-18T04:57:51;119.93;;;37.92;;
36923;SDS011;22841;50.252;18.688;2022-12-18T05:00:17;128.40;;;38.83;;
36923;SDS011;22841;50.252;18.688;2022-12-18T05:02:43;117.35;;;36.55;;
36923;SDS011;22841;50.252;18.688;2022-12-18T05:05:10;119.85;;;36.42;;
36923;SDS011;22841;50.252;18.688;2022-12-18T05:07:36;122.22;;;38.10;;
36923;SDS011;22841;50.252;18.688;2022-12-18T05:10:02;145.63;;;46.17;;
36923;SDS011;22841;50.252;18.688;2022-12-18T05:12:32;119.25;;;37.63;;
36923;SDS011;22841;50.252;18.688;2022-12-18T05:14:58;116.13;;;36.75;;
36923;SDS011;22841;50.252;18.688;2022-12-18T05:17:24;118.07;;;38.33;;
36923;SDS011;22841;50.252;18.688;2022-12-18T05:19:50;107.95;;;34.97;;
36923;SDS011;22841;50.252;18.688;2022-12-18T05:22:16;102.35;;;35.65;;
36923;SDS011;22841;50.252;18.688;2022-12-18T05:24:42;101.57;;;36.67;;
36923;SDS011;22841;50.252;18.688;2022-12-18T05:27:08;106.65;;;35.47;;
36923;SDS011;22841;50.252;18.688;2022-12-18T05:29:34;130.82;;;39.50;;
36923;SDS011;22841;50.252;18.688;2022-12-18T05:32:00;114.40;;;38.20;;
36923;SDS011;22841;50.252;18.688;2022-12-18T05:34:26;126.40;;;38.42;;
36923;SDS011;22841;50.252;18.688;2022-12-18T05:36:52;124.13;;;40.53;;
36923;SDS011;22841;50.252;18.688;2022-12-18T05:39:18;122.70;;;39.67;;
36923;SDS011;22841;50.252;18.688;2022-12-18T05:41:44;132.50;;;40.53;;
36923;SDS011;22841;50.252;18.688;2022-12-18T05:44:11;128.27;;;40.10;;
36923;SDS011;22841;50.252;18.688;2022-12-18T05:46:37;123.88;;;39.53;;
36923;SDS011;22841;50.252;18.688;2022-12-18T05:51:34;108.00;;;35.13;;
36923;SDS011;22841;50.252;18.688;2022-12-18T05:54:00;119.10;;;35.03;;
36923;SDS011;22841;50.252;18.688;2022-12-18T05:56:26;103.07;;;31.08;;
36923;SDS011;22841;50.252;18.688;2022-12-18T05:58:53;98.97;;;30.85;;
36923;SDS011;22841;50.252;18.688;2022-12-18T06:01:22;114.93;;;32.97;;
36923;SDS011;22841;50.252;18.688;2022-12-18T06:03:50;101.35;;;29.85;;
36923;SDS011;22841;50.252;18.688;2022-12-18T06:06:17;106.53;;;31.98;;
36923;SDS011;22841;50.252;18.688;2022-12-18T06:08:45;103.57;;;32.38;;
36923;SDS011;22841;50.252;18.688;2022-12-18T06:11:12;106.45;;;30.27;;
36923;SDS011;22841;50.252;18.688;2022-12-18T06:13:41;109.57;;;32.90;;
36923;SDS011;22841;50.252;18.688;2022-12-18T06:16:07;94.15;;;29.67;;
36923;SDS011;22841;50.252;18.688;2022-12-18T06:18:33;100.63;;;31.85;;
36923;SDS011;22841;50.252;18.688;2022-12-18T06:21:02;117.60;;;32.05;;
36923;SDS011;22841;50.252;18.688;2022-12-18T06:23:28;103.55;;;31.65;;
36923;SDS011;22841;50.252;18.688;2022-12-18T06:25:55;117.53;;;33.80;;
36923;SDS011;22841;50.252;18.688;2022-12-18T06:28:21;112.45;;;34.92;;
36923;SDS011;22841;50.252;18.688;2022-12-18T06:30:47;120.00;;;35.38;;
36923;SDS011;22841;50.252;18.688;2022-12-18T06:33:14;123.25;;;39.60;;
36923;SDS011;22841;50.252;18.688;2022-12-18T06:35:41;132.98;;;40.85;;
36923;SDS011;22841;50.252;18.688;2022-12-18T06:38:07;122.63;;;40.47;;
36923;SDS011;22841;50.252;18.688;2022-12-18T06:40:33;149.60;;;48.90;;
36923;SDS011;22841;50.252;18.688;2022-12-18T06:42:59;164.52;;;48.92;;
36923;SDS011;22841;50.252;18.688;2022-12-18T06:45:25;184.32;;;52.33;;
36923;SDS011;22841;50.252;18.688;2022-12-18T06:47:51;146.80;;;48.15;;
36923;SDS011;22841;50.252;18.688;2022-12-18T06:50:18;145.50;;;48.83;;
36923;SDS011;22841;50.252;18.688;2022-12-18T06:52:44;170.10;;;51.95;;
36923;SDS011;22841;50.252;18.688;2022-12-18T06:55:10;146.63;;;42.72;;
36923;SDS011;22841;50.252;18.688;2022-12-18T06:57:37;146.52;;;42.47;;
36923;SDS011;22841;50.252;18.688;2022-12-18T07:00:04;128.63;;;42.33;;
36923;SDS011;22841;50.252;18.688;2022-12-18T07:02:31;117.10;;;42.00;;
36923;SDS011;22841;50.252;18.688;2022-12-18T07:04:58;134.95;;;44.22;;
36923;SDS011;22841;50.252;18.688;2022-12-18T07:07:24;128.25;;;42.75;;
36923;SDS011;22841;50.252;18.688;2022-12-18T07:09:50;136.98;;;44.35;;
36923;SDS011;22841;50.252;18.688;2022-12-18T07:12:17;142.55;;;45.50;;
36923;SDS011;22841;50.252;18.688;2022-12-18T07:14:43;144.45;;;48.10;;
36923;SDS011;22841;50.252;18.688;2022-12-18T07:17:09;146.55;;;48.60;;
36923;SDS011;22841;50.252;18.688;2022-12-18T07:19:35;129.50;;;43.63;;
36923;SDS011;22841;50.252;18.688;2022-12-18T07:22:01;128.32;;;44.45;;
36923;SDS011;22841;50.252;18.688;2022-12-18T07:24:27;143.43;;;42.35;;
36923;SDS011;22841;50.252;18.688;2022-12-18T07:26:53;133.82;;;41.38;;
36923;SDS011;22841;50.252;18.688;2022-12-18T07:29:20;135.27;;;44.42;;
36923;SDS011;22841;50.252;18.688;2022-12-18T07:31:46;135.98;;;44.20;;
36923;SDS011;22841;50.252;18.688;2022-12-18T07:34:13;135.65;;;45.08;;
36923;SDS011;22841;50.252;18.688;2022-12-18T07:36:40;128.07;;;41.65;;
36923;SDS011;22841;50.252;18.688;2022-12-18T07:39:06;121.47;;;42.15;;
36923;SDS011;22841;50.252;18.688;2022-12-18T07:41:33;112.57;;;39.10;;
36923;SDS011;22841;50.252;18.688;2022-12-18T07:43:59;106.78;;;34.70;;
36923;SDS011;22841;50.252;18.688;2022-12-18T07:46:25;100.60;;;32.22;;
36923;SDS011;22841;50.252;18.688;2022-12-18T07:48:51;106.60;;;35.95;;
36923;SDS011;22841;50.252;18.688;2022-12-18T07:51:17;123.60;;;36.17;;
36923;SDS011;22841;50.252;18.688;2022-12-18T07:53:44;118.70;;;40.30;;
36923;SDS011;22841;50.252;18.688;2022-12-18T07:56:11;109.25;;;36.40;;
36923;SDS011;22841;50.252;18.688;2022-12-18T07:58:37;121.13;;;40.78;;
36923;SDS011;22841;50.252;18.688;2022-12-18T08:03:33;123.72;;;40.58;;
36923;SDS011;22841;50.252;18.688;2022-12-18T08:06:00;116.35;;;34.95;;
36923;SDS011;22841;50.252;18.688;2022-12-18T08:08:27;104.97;;;34.63;;
36923;SDS011;22841;50.252;18.688;2022-12-18T08:10:54;107.63;;;36.22;;
36923;SDS011;22841;50.252;18.688;2022-12-18T08:13:20;109.05;;;36.45;;
36923;SDS011;22841;50.252;18.688;2022-12-18T08:15:55;118.15;;;39.40;;
36923;SDS011;22841;50.252;18.688;2022-12-18T08:18:22;134.18;;;42.92;;
36923;SDS011;22841;50.252;18.688;2022-12-18T08:20:48;109.05;;;40.40;;
36923;SDS011;22841;50.252;18.688;2022-12-18T08:23:14;122.85;;;44.03;;
36923;SDS011;22841;50.252;18.688;2022-12-18T08:25:40;121.85;;;49.10;;
36923;SDS011;22841;50.252;18.688;2022-12-18T08:28:06;121.38;;;47.90;;
36923;SDS011;22841;50.252;18.688;2022-12-18T08:30:32;151.68;;;62.10;;
36923;SDS011;22841;50.252;18.688;2022-12-18T08:32:58;125.93;;;45.85;;
36923;SDS011;22841;50.252;18.688;2022-12-18T08:35:25;97.05;;;36.97;;
36923;SDS011;22841;50.252;18.688;2022-12-18T08:37:51;108.60;;;38.67;;
36923;SDS011;22841;50.252;18.688;2022-12-18T08:40:17;95.28;;;35.08;;
36923;SDS011;22841;50.252;18.688;2022-12-18T08:42:43;104.43;;;33.40;;
36923;SDS011;22841;50.252;18.688;2022-12-18T08:45:27;101.38;;;33.40;;
36923;SDS011;22841;50.252;18.688;2022-12-18T08:47:53;96.90;;;33.70;;
36923;SDS011;22841;50.252;18.688;2022-12-18T08:50:19;100.78;;;34.78;;
36923;SDS011;22841;50.252;18.688;2022-12-18T08:52:46;93.85;;;33.90;;
36923;SDS011;22841;50.252;18.688;2022-12-18T08:55:12;98.28;;;35.15;;
36923;SDS011;22841;50.252;18.688;2022-12-18T08:57:38;101.07;;;36.53;;
36923;SDS011;22841;50.252;18.688;2022-12-18T09:00:04;97.82;;;34.97;;
36923;SDS011;22841;50.252;18.688;2022-12-18T09:02:30;101.88;;;35.38;;
36923;SDS011;22841;50.252;18.688;2022-12-18T09:04:56;103.25;;;32.70;;
36923;SDS011;22841;50.252;18.688;2022-12-18T09:07:22;97.43;;;31.77;;
36923;SDS011;22841;50.252;18.688;2022-12-18T09:09:48;97.53;;;31.75;;
36923;SDS011;22841;50.252;18.688;2022-12-18T09:12:14;102.13;;;34.70;;
36923;SDS011;22841;50.252;18.688;2022-12-18T09:14:41;91.43;;;30.55;;
36923;SDS011;22841;50.252;18.688;2022-12-18T09:17:07;95.00;;;34.15;;
36923;SDS011;22841;50.252;18.688;2022-12-18T09:19:33;87.50;;;31.30;;
36923;SDS011;22841;50.252;18.688;2022-12-18T09:21:59;89.95;;;34.67;;
36923;SDS011;22841;50.252;18.688;2022-12-18T09:24:25;103.35;;;29.25;;
36923;SDS011;22841;50.252;18.688;2022-12-18T09:26:54;86.68;;;28.70;;
36923;SDS011;22841;50.252;18.688;2022-12-18T09:29:20;85.93;;;27.08;;
36923;SDS011;22841;50.252;18.688;2022-12-18T09:31:46;94.75;;;30.27;;
36923;SDS011;22841;50.252;18.688;2022-12-18T09:34:12;85.65;;;29.02;;
36923;SDS011;22841;50.252;18.688;2022-12-18T09:36:38;81.53;;;28.38;;
36923;SDS011;22841;50.252;18.688;2022-12-18T09:39:05;85.80;;;29.50;;
36923;SDS011;22841;50.252;18.688;2022-12-18T09:44:05;81.05;;;26.85;;
36923;SDS011;22841;50.252;18.688;2022-12-18T09:46:37;90.18;;;27.52;;
36923;SDS011;22841;50.252;18.688;2022-12-18T09:49:13;81.65;;;29.10;;
36923;SDS011;22841;50.252;18.688;2022-12-18T09:51:45;79.38;;;28.75;;
36923;SDS011;22841;50.252;18.688;2022-12-18T09:54:18;83.65;;;28.27;;
36923;SDS011;22841;50.252;18.688;2022-12-18T09:56:48;75.65;;;26.95;;
36923;SDS011;22841;50.252;18.688;2022-12-18T10:01:46;92.07;;;28.98;;
36923;SDS011;22841;50.252;18.688;2022-12-18T10:04:13;90.97;;;28.73;;
36923;SDS011;22841;50.252;18.688;2022-12-18T10:12:02;83.60;;;28.25;;
36923;SDS011;22841;50.252;18.688;2022-12-18T10:14:47;91.55;;;29.83;;
36923;SDS011;22841;50.252;18.688;2022-12-18T10:22:42;87.22;;;28.98;;
36923;SDS011;22841;50.252;18.688;2022-12-18T10:25:15;83.43;;;27.25;;
36923;SDS011;22841;50.252;18.688;2022-12-18T10:27:48;80.03;;;28.73;;
36923;SDS011;22841;50.252;18.688;2022-12-18T10:30:21;79.25;;;28.98;;
36923;SDS011;22841;50.252;18.688;2022-12-18T10:32:48;93.75;;;30.35;;
36923;SDS011;22841;50.252;18.688;2022-12-18T10:35:17;82.45;;;28.88;;
36923;SDS011;22841;50.252;18.688;2022-12-18T10:38:04;68.93;;;26.15;;
36923;SDS011;22841;50.252;18.688;2022-12-18T10:43:15;78.13;;;28.85;;
36923;SDS011;22841;50.252;18.688;2022-12-18T10:45:56;90.93;;;30.33;;
36923;SDS011;22841;50.252;18.688;2022-12-18T10:48:25;91.55;;;30.17;;
36923;SDS011;22841;50.252;18.688;2022-12-18T10:50:52;88.57;;;27.55;;
36923;SDS011;22841;50.252;18.688;2022-12-18T10:53:20;88.07;;;30.52;;
36923;SDS011;22841;50.252;18.688;2022-12-18T10:55:52;93.28;;;29.85;;
36923;SDS011;22841;50.252;18.688;2022-12-18T11:01:08;96.82;;;30.83;;
36923;SDS011;22841;50.252;18.688;2022-12-18T11:03:46;97.53;;;34.08;;
36923;SDS011;22841;50.252;18.688;2022-12-18T11:06:25;92.53;;;30.88;;
36923;SDS011;22841;50.252;18.688;2022-12-18T11:09:02;87.78;;;30.45;;
36923;SDS011;22841;50.252;18.688;2022-12-18T11:11:31;90.22;;;28.98;;
36923;SDS011;22841;50.252;18.688;2022-12-18T11:14:01;91.22;;;33.30;;
36923;SDS011;22841;50.252;18.688;2022-12-18T11:17:16;98.85;;;31.73;;
36923;SDS011;22841;50.252;18.688;2022-12-18T11:19:38;92.20;;;30.95;;
36923;SDS011;22841;50.252;18.688;2022-12-18T11:24:59;102.25;;;34.50;;
36923;SDS011;22841;50.252;18.688;2022-12-18T11:27:27;100.70;;;33.20;;
36923;SDS011;22841;50.252;18.688;2022-12-18T11:30:40;112.90;;;37.65;;
36923;SDS011;22841;50.252;18.688;2022-12-18T11:32:44;119.15;;;41.20;;
36923;SDS011;22841;50.252;18.688;2022-12-18T11:35:19;104.13;;;36.42;;
36923;SDS011;22841;50.252;18.688;2022-12-18T11:37:51;97.90;;;35.53;;
36923;SDS011;22841;50.252;18.688;2022-12-18T11:40:42;104.90;;;36.80;;
36923;SDS011;22841;50.252;18.688;2022-12-18T11:43:21;92.43;;;34.35;;
36923;SDS011;22841;50.252;18.688;2022-12-18T11:46:05;96.55;;;35.00;;
36923;SDS011;22841;50.252;18.688;2022-12-18T11:48:49;103.97;;;37.58;;
36923;SDS011;22841;50.252;18.688;2022-12-18T11:51:28;111.22;;;36.72;;
36923;SDS011;22841;50.252;18.688;2022-12-18T11:54:01;114.45;;;39.90;;
36923;SDS011;22841;50.252;18.688;2022-12-18T11:56:35;114.10;;;40.25;;
36923;SDS011;22841;50.252;18.688;2022-12-18T12:04:41;110.13;;;38.40;;
36923;SDS011;22841;50.252;18.688;2022-12-18T12:16:08;114.40;;;36.17;;
36923;SDS011;22841;50.252;18.688;2022-12-18T12:21:35;104.28;;;37.10;;
36923;SDS011;22841;50.252;18.688;2022-12-18T12:29:56;115.88;;;38.88;;
36923;SDS011;22841;50.252;18.688;2022-12-18T12:38:22;103.53;;;37.58;;
36923;SDS011;22841;50.252;18.688;2022-12-18T12:41:02;109.72;;;39.75;;
36923;SDS011;22841;50.252;18.688;2022-12-18T12:51:29;116.60;;;41.83;;
36923;SDS011;22841;50.252;18.688;2022-12-18T12:54:05;122.20;;;37.25;;
36923;SDS011;22841;50.252;18.688;2022-12-18T12:59:13;116.10;;;38.50;;
36923;SDS011;22841;50.252;18.688;2022-12-18T13:01:48;117.07;;;40.55;;
36923;SDS011;22841;50.252;18.688;2022-12-18T13:07:24;123.13;;;42.90;;
36923;SDS011;22841;50.252;18.688;2022-12-18T13:10:23;126.57;;;44.53;;
36923;SDS011;22841;50.252;18.688;2022-12-18T13:12:58;109.30;;;41.00;;
36923;SDS011;22841;50.252;18.688;2022-12-18T13:18:05;118.68;;;41.97;;
36923;SDS011;22841;50.252;18.688;2022-12-18T13:20:36;114.43;;;39.72;;
36923;SDS011;22841;50.252;18.688;2022-12-18T13:26:35;131.45;;;45.25;;
36923;SDS011;22841;50.252;18.688;2022-12-18T13:31:13;134.75;;;42.42;;
36923;SDS011;22841;50.252;18.688;2022-12-18T13:36:42;124.47;;;39.83;;
36923;SDS011;22841;50.252;18.688;2022-12-18T13:41:37;111.20;;;37.67;;
36923;SDS011;22841;50.252;18.688;2022-12-18T13:44:10;121.38;;;41.38;;
36923;SDS011;22841;50.252;18.688;2022-12-18T13:46:42;106.50;;;37.45;;
36923;SDS011;22841;50.252;18.688;2022-12-18T13:51:48;107.45;;;37.42;;
36923;SDS011;22841;50.252;18.688;2022-12-18T13:54:35;104.22;;;36.58;;
36923;SDS011;22841;50.252;18.688;2022-12-18T13:57:22;103.63;;;36.38;;
36923;SDS011;22841;50.252;18.688;2022-12-18T13:59:55;101.53;;;36.55;;
36923;SDS011;22841;50.252;18.688;2022-12-18T14:02:23;111.32;;;38.25;;
36923;SDS011;22841;50.252;18.688;2022-12-18T14:04:51;123.57;;;38.38;;
36923;SDS011;22841;50.252;18.688;2022-12-18T14:07:19;99.63;;;35.25;;
36923;SDS011;22841;50.252;18.688;2022-12-18T14:09:54;108.72;;;35.95;;
36923;SDS011;22841;50.252;18.688;2022-12-18T14:12:24;107.43;;;35.40;;
36923;SDS011;22841;50.252;18.688;2022-12-18T14:17:52;124.70;;;36.30;;
36923;SDS011;22841;50.252;18.688;2022-12-18T14:20:20;95.07;;;33.17;;
36923;SDS011;22841;50.252;18.688;2022-12-18T14:22:47;101.07;;;35.00;;
36923;SDS011;22841;50.252;18.688;2022-12-18T14:25:18;91.10;;;32.75;;
36923;SDS011;22841;50.252;18.688;2022-12-18T14:27:48;101.65;;;35.67;;
36923;SDS011;22841;50.252;18.688;2022-12-18T14:30:30;103.28;;;35.17;;
36923;SDS011;22841;50.252;18.688;2022-12-18T14:33:01;113.00;;;37.72;;
36923;SDS011;22841;50.252;18.688;2022-12-18T14:35:31;115.00;;;38.63;;
36923;SDS011;22841;50.252;18.688;2022-12-18T14:40:54;116.40;;;41.67;;
36923;SDS011;22841;50.252;18.688;2022-12-18T14:45:57;138.23;;;49.53;;
36923;SDS011;22841;50.252;18.688;2022-12-18T14:48:30;150.95;;;49.58;;
36923;SDS011;22841;50.252;18.688;2022-12-18T14:51:03;167.70;;;54.83;;
36923;SDS011;22841;50.252;18.688;2022-12-18T14:53:35;153.70;;;53.83;;
36923;SDS011;22841;50.252;18.688;2022-12-18T14:56:25;150.95;;;52.28;;
36923;SDS011;22841;50.252;18.688;2022-12-18T14:59:03;155.55;;;55.70;;
36923;SDS011;22841;50.252;18.688;2022-12-18T15:01:37;162.43;;;57.40;;
36923;SDS011;22841;50.252;18.688;2022-12-18T15:07:03;201.77;;;65.40;;
36923;SDS011;22841;50.252;18.688;2022-12-18T15:09:35;204.93;;;70.68;;
36923;SDS011;22841;50.252;18.688;2022-12-18T15:12:03;210.95;;;74.18;;
36923;SDS011;22841;50.252;18.688;2022-12-18T15:16:56;205.13;;;73.28;;
36923;SDS011;22841;50.252;18.688;2022-12-18T15:19:46;225.40;;;73.13;;
36923;SDS011;22841;50.252;18.688;2022-12-18T15:22:30;216.13;;;71.32;;
36923;SDS011;22841;50.252;18.688;2022-12-18T15:25:02;201.57;;;68.22;;
36923;SDS011;22841;50.252;18.688;2022-12-18T15:28:00;191.43;;;67.35;;
36923;SDS011;22841;50.252;18.688;2022-12-18T15:30:26;209.38;;;68.82;;
36923;SDS011;22841;50.252;18.688;2022-12-18T15:32:52;202.57;;;67.95;;
36923;SDS011;22841;50.252;18.688;2022-12-18T15:35:58;190.65;;;64.82;;
36923;SDS011;22841;50.252;18.688;2022-12-18T15:38:25;193.50;;;67.82;;
36923;SDS011;22841;50.252;18.688;2022-12-18T15:40:52;192.50;;;63.40;;
36923;SDS011;22841;50.252;18.688;2022-12-18T15:43:22;177.07;;;60.30;;
36923;SDS011;22841;50.252;18.688;2022-12-18T15:46:02;163.15;;;57.60;;
36923;SDS011;22841;50.252;18.688;2022-12-18T15:51:00;163.18;;;53.40;;
36923;SDS011;22841;50.252;18.688;2022-12-18T15:53:31;167.98;;;57.17;;
36923;SDS011;22841;50.252;18.688;2022-12-18T15:55:58;166.73;;;56.22;;
36923;SDS011;22841;50.252;18.688;2022-12-18T15:58:43;171.57;;;57.05;;
36923;SDS011;22841;50.252;18.688;2022-12-18T16:01:09;175.48;;;60.95;;
36923;SDS011;22841;50.252;18.688;2022-12-18T16:03:37;170.48;;;55.95;;
36923;SDS011;22841;50.252;18.688;2022-12-18T16:06:03;163.43;;;56.13;;
36923;SDS011;22841;50.252;18.688;2022-12-18T16:08:29;184.90;;;60.40;;
36923;SDS011;22841;50.252;18.688;2022-12-18T16:10:56;166.35;;;60.28;;
36923;SDS011;22841;50.252;18.688;2022-12-18T16:13:23;174.25;;;58.63;;
36923;SDS011;22841;50.252;18.688;2022-12-18T16:15:49;165.48;;;59.80;;
36923;SDS011;22841;50.252;18.688;2022-12-18T16:18:15;169.82;;;59.42;;
36923;SDS011;22841;50.252;18.688;2022-12-18T16:20:41;161.63;;;57.83;;